createdAt,value
2022-12-08T00:01:20.696Z,36.41
2022-12-08T00:03:48.148Z,36.07
2022-12-08T00:06:49.462Z,35.99
2022-12-08T00:09:39.509Z,36.43
2022-12-08T00:12:11.785Z,36.20
2022-12-08T00:14:39.762Z,36.41
2022-12-08T00:17:08.364Z,36.39
2022-12-08T00:19:34.992Z,36.16
2022-12-08T00:22:03.133Z,36.25
2022-12-08T00:24:31.875Z,36.06
2022-12-08T00:26:58.445Z,36.07
2022-12-08T00:29:25.020Z,36.29
2022-12-08T00:31:51.783Z,36.23
2022-12-08T00:34:18.758Z,36.29
2022-12-08T00:36:45.651Z,36.25
2022-12-08T00:39:13.958Z,36.44
2022-12-08T00:41:58.918Z,36.18
2022-12-08T00:44:25.583Z,36.29
2022-12-08T00:46:52.142Z,36.27
2022-12-08T00:49:18.839Z,36.25
2022-12-08T00:51:45.443Z,36.19
2022-12-08T00:54:12.211Z,35.84
2022-12-08T00:56:38.910Z,36.18
2022-12-08T00:59:06.883Z,36.14
2022-12-08T01:01:34.764Z,36.12
2022-12-08T01:04:06.326Z,36.17
2022-12-08T01:06:35.383Z,36.09
2022-12-08T01:09:03.779Z,36.22
2022-12-08T01:11:30.366Z,35.93
2022-12-08T01:13:57.031Z,36.24
2022-12-08T01:16:28.807Z,35.76
2022-12-08T01:18:57.132Z,36.00
2022-12-08T01:21:23.716Z,36.45
2022-12-08T01:23:50.500Z,36.21
2022-12-08T01:26:18.803Z,36.43
2022-12-08T01:28:46.576Z,36.11
2022-12-08T01:31:16.635Z,35.69
2022-12-08T01:33:44.270Z,36.00
2022-12-08T01:36:31.098Z,35.67
2022-12-08T01:38:59.894Z,35.90
2022-12-08T01:41:29.289Z,36.16
2022-12-08T01:44:00.305Z,36.03
2022-12-08T01:46:29.405Z,35.99
2022-12-08T01:49:10.969Z,35.75
2022-12-08T01:51:55.747Z,36.02
2022-12-08T01:54:25.699Z,36.11
2022-12-08T01:57:02.988Z,36.21
2022-12-08T01:59:33.156Z,35.86
2022-12-08T02:01:59.804Z,36.33
2022-12-08T02:04:26.464Z,35.72
2022-12-08T02:06:53.776Z,36.04
2022-12-08T02:09:22.576Z,35.94
2022-12-08T02:11:51.155Z,36.00
2022-12-08T02:14:17.787Z,36.36
2022-12-08T02:17:05.082Z,35.88
2022-12-08T02:19:54.089Z,35.88
2022-12-08T02:22:36.089Z,35.67
2022-12-08T02:25:24.389Z,35.87
2022-12-08T02:28:22.831Z,35.77
2022-12-08T02:31:21.896Z,35.92
2022-12-08T02:34:06.459Z,36.05
2022-12-08T02:37:01.683Z,36.20
2022-12-08T02:39:46.048Z,36.21
2022-12-08T02:42:26.068Z,36.02
2022-12-08T02:45:03.751Z,36.06
2022-12-08T02:47:31.859Z,35.79
2022-12-08T02:49:59.257Z,35.88
2022-12-08T02:52:25.922Z,35.65
2022-12-08T02:55:06.729Z,36.04
2022-12-08T02:57:55.005Z,36.09
2022-12-08T03:00:25.033Z,36.09
2022-12-08T03:03:09.824Z,36.19
2022-12-08T03:05:42.346Z,35.92
2022-12-08T03:08:30.493Z,36.20
2022-12-08T03:11:21.176Z,36.02
2022-12-08T03:13:54.938Z,36.28
2022-12-08T03:16:26.382Z,35.85
2022-12-08T03:18:59.098Z,35.39
2022-12-08T03:21:26.287Z,35.71
2022-12-08T03:23:56.896Z,36.31
2022-12-08T03:26:34.418Z,35.80
2022-12-08T03:29:01.028Z,36.12
2022-12-08T03:31:31.634Z,35.81
2022-12-08T03:34:00.770Z,35.98
2022-12-08T03:36:28.270Z,35.61
2022-12-08T03:38:54.908Z,36.19
2022-12-08T03:41:24.508Z,36.13
2022-12-08T03:43:57.061Z,36.10
2022-12-08T03:48:52.573Z,35.80
2022-12-08T03:51:19.619Z,35.97
2022-12-08T03:53:46.363Z,35.81
2022-12-08T03:56:19.904Z,36.08
2022-12-08T03:58:46.471Z,35.81
2022-12-08T04:01:13.793Z,36.05
2022-12-08T04:03:40.376Z,36.03
2022-12-08T04:06:07.566Z,35.83
2022-12-08T04:08:34.454Z,35.69
2022-12-08T04:11:01.051Z,35.67
2022-12-08T04:13:27.648Z,35.55
2022-12-08T04:15:54.295Z,35.67
2022-12-08T04:18:20.891Z,35.52
2022-12-08T04:20:47.435Z,35.76
2022-12-08T04:23:14.113Z,35.99
2022-12-08T04:25:40.788Z,36.30
2022-12-08T04:28:07.402Z,35.91
2022-12-08T04:30:34.497Z,35.85
2022-12-08T04:33:01.102Z,35.75
2022-12-08T04:35:28.386Z,35.83
2022-12-08T04:37:55.089Z,35.74
2022-12-08T04:40:21.708Z,35.68
2022-12-08T04:42:48.467Z,36.33
2022-12-08T04:45:15.305Z,35.74
2022-12-08T04:47:42.132Z,35.78
2022-12-08T04:50:09.070Z,35.98
2022-12-08T04:52:35.743Z,35.88
2022-12-08T04:55:02.631Z,35.66
2022-12-08T04:57:29.263Z,35.67
2022-12-08T04:59:55.872Z,35.89
2022-12-08T05:02:22.491Z,35.85
2022-12-08T05:04:49.290Z,35.82
2022-12-08T05:07:16.052Z,35.72
2022-12-08T05:09:42.672Z,35.79
2022-12-08T05:12:09.236Z,35.85
2022-12-08T05:14:35.800Z,35.88
2022-12-08T05:17:07.816Z,35.83
2022-12-08T05:19:36.111Z,35.65
2022-12-08T05:22:02.634Z,35.81
2022-12-08T05:24:29.189Z,35.45
2022-12-08T05:26:55.799Z,36.04
2022-12-08T05:29:22.365Z,35.87
2022-12-08T05:31:49.012Z,35.44
2022-12-08T05:34:15.724Z,35.92
2022-12-08T05:36:42.312Z,36.02
2022-12-08T05:39:14.300Z,35.50
2022-12-08T05:41:41.311Z,35.87
2022-12-08T05:44:08.584Z,36.02
2022-12-08T05:46:35.924Z,35.54
2022-12-08T05:49:03.986Z,35.66
2022-12-08T05:51:30.595Z,35.60
2022-12-08T05:53:57.334Z,35.63
2022-12-08T05:56:24.455Z,35.37
2022-12-08T05:58:51.376Z,35.55
2022-12-08T06:01:22.304Z,35.60
2022-12-08T06:03:49.092Z,35.74
2022-12-08T06:06:15.798Z,35.85
2022-12-08T06:08:42.378Z,36.00
2022-12-08T06:11:09.345Z,35.85
2022-12-08T06:13:35.953Z,36.05
2022-12-08T06:16:06.661Z,36.13
2022-12-08T06:18:33.777Z,36.01
2022-12-08T06:21:19.752Z,35.46
2022-12-08T06:23:50.883Z,35.66
2022-12-08T06:26:18.467Z,36.04
2022-12-08T06:28:45.285Z,35.98
2022-12-08T06:31:34.756Z,36.10
2022-12-08T06:34:01.317Z,35.78
2022-12-08T06:36:29.095Z,35.77
2022-12-08T06:38:56.569Z,36.15
2022-12-08T06:41:23.476Z,36.06
2022-12-08T06:43:50.081Z,36.34
2022-12-08T06:46:19.571Z,36.47
2022-12-08T06:48:46.921Z,36.29
2022-12-08T06:51:20.044Z,36.57
2022-12-08T06:53:47.228Z,36.11
2022-12-08T06:56:16.032Z,36.05
2022-12-08T06:58:46.094Z,36.05
2022-12-08T07:01:17.132Z,36.13
2022-12-08T07:03:43.808Z,36.74
2022-12-08T07:06:16.152Z,36.17
2022-12-08T07:08:43.246Z,36.11
2022-12-08T07:11:14.104Z,36.57
2022-12-08T07:13:43.362Z,36.24
2022-12-08T07:16:11.703Z,36.31
2022-12-08T07:18:39.339Z,36.00
2022-12-08T07:21:10.656Z,36.30
2022-12-08T07:23:37.618Z,36.63
2022-12-08T07:26:06.615Z,36.69
2022-12-08T07:28:35.489Z,36.41
2022-12-08T07:31:02.588Z,36.45
2022-12-08T07:33:29.691Z,36.35
2022-12-08T07:35:57.311Z,36.14
2022-12-08T07:38:24.632Z,36.47
2022-12-08T07:40:51.767Z,35.96
2022-12-08T07:43:18.427Z,36.21
2022-12-08T07:45:45.541Z,36.60
2022-12-08T07:48:12.237Z,36.19
2022-12-08T07:50:39.127Z,36.39
2022-12-08T07:53:06.579Z,36.21
2022-12-08T07:55:33.465Z,36.34
2022-12-08T07:58:00.228Z,36.26
2022-12-08T08:00:26.853Z,35.99
2022-12-08T08:02:53.567Z,35.61
2022-12-08T08:05:20.683Z,36.09
2022-12-08T08:07:48.345Z,35.76
2022-12-08T08:10:15.350Z,36.04
2022-12-08T08:12:41.936Z,36.09
2022-12-08T08:15:13.936Z,35.83
2022-12-08T08:17:40.624Z,36.13
2022-12-08T08:20:08.337Z,35.64
2022-12-08T08:22:37.017Z,35.57
2022-12-08T08:25:04.397Z,35.95
2022-12-08T08:27:30.991Z,35.58
2022-12-08T08:29:57.547Z,35.71
2022-12-08T08:32:24.119Z,36.14
2022-12-08T08:34:52.144Z,35.75
2022-12-08T08:37:18.879Z,35.82
2022-12-08T08:39:45.460Z,35.76
2022-12-08T08:42:12.042Z,35.67
2022-12-08T08:44:39.036Z,35.52
2022-12-08T08:47:05.768Z,36.03
2022-12-08T08:49:32.571Z,35.66
2022-12-08T08:51:59.192Z,35.89
2022-12-08T08:54:25.867Z,35.70
2022-12-08T08:56:52.749Z,35.38
2022-12-08T08:59:19.327Z,35.51
2022-12-08T09:01:45.958Z,35.30
2022-12-08T09:04:12.647Z,35.56
2022-12-08T09:06:39.361Z,35.02
2022-12-08T09:09:06.488Z,35.39
2022-12-08T09:11:33.344Z,34.78
2022-12-08T09:13:59.938Z,33.91
2022-12-08T09:16:26.699Z,33.60
2022-12-08T09:18:53.443Z,34.03
2022-12-08T09:21:23.360Z,34.33
2022-12-08T09:23:58.590Z,33.92
2022-12-08T09:26:27.200Z,34.33
2022-12-08T09:28:55.158Z,34.33
2022-12-08T09:31:22.907Z,34.44
2022-12-08T09:33:53.177Z,34.86
2022-12-08T09:36:20.699Z,34.51
2022-12-08T09:38:47.988Z,34.59
2022-12-08T09:41:38.771Z,34.50
2022-12-08T09:44:33.568Z,34.78
2022-12-08T09:47:01.602Z,34.62
2022-12-08T09:49:41.897Z,34.63
2022-12-08T09:52:23.186Z,35.04
2022-12-08T09:54:50.084Z,34.58
2022-12-08T09:57:20.817Z,34.67
2022-12-08T09:59:53.611Z,35.06
2022-12-08T10:02:23.802Z,34.80
2022-12-08T10:04:59.100Z,34.89
2022-12-08T10:07:37.778Z,34.62
2022-12-08T10:10:14.662Z,34.54
2022-12-08T10:13:08.426Z,34.40
2022-12-08T10:15:52.859Z,35.15
2022-12-08T10:18:30.285Z,34.65
2022-12-08T10:21:11.620Z,34.74
2022-12-08T10:23:41.097Z,34.28
2022-12-08T10:26:16.772Z,35.09
2022-12-08T10:28:45.360Z,34.73
2022-12-08T10:31:21.486Z,34.62
2022-12-08T10:33:57.243Z,34.64
2022-12-08T10:36:27.544Z,34.36
2022-12-08T10:38:54.126Z,34.51
2022-12-08T10:41:20.844Z,34.89
2022-12-08T10:43:50.922Z,34.49
2022-12-08T10:46:21.035Z,34.20
2022-12-08T10:49:05.980Z,34.64
2022-12-08T10:51:37.934Z,34.15
2022-12-08T10:54:06.225Z,34.20
2022-12-08T10:56:33.333Z,33.80
2022-12-08T10:59:26.484Z,34.47
2022-12-08T11:01:55.263Z,34.26
2022-12-08T11:04:24.329Z,34.42
2022-12-08T11:06:51.885Z,34.19
2022-12-08T11:09:18.745Z,34.15
2022-12-08T11:11:49.335Z,34.00
2022-12-08T11:14:22.147Z,34.28
2022-12-08T11:16:53.160Z,34.25
2022-12-08T11:19:21.548Z,34.60
2022-12-08T11:21:48.350Z,34.85
2022-12-08T11:24:15.045Z,34.86
2022-12-08T11:26:49.487Z,34.59
2022-12-08T11:29:17.439Z,34.87
2022-12-08T11:31:49.978Z,35.30
2022-12-08T11:34:31.481Z,35.32
2022-12-08T11:36:59.209Z,35.03
2022-12-08T11:39:29.804Z,35.53
2022-12-08T11:41:58.480Z,34.98
2022-12-08T11:44:31.111Z,34.77
2022-12-08T11:47:22.557Z,34.70
2022-12-08T11:49:56.767Z,34.85
2022-12-08T11:52:26.446Z,35.38
2022-12-08T11:55:35.219Z,34.88
2022-12-08T11:58:16.738Z,35.43
2022-12-08T12:00:43.628Z,34.97
2022-12-08T12:03:29.754Z,35.21
2022-12-08T12:06:53.322Z,34.78
2022-12-08T12:09:40.967Z,35.13
2022-12-08T12:12:16.763Z,34.81
2022-12-08T12:15:40.837Z,34.78
2022-12-08T12:18:34.457Z,35.01
2022-12-08T12:21:18.387Z,35.18
2022-12-08T12:23:56.296Z,35.62
2022-12-08T12:26:26.314Z,35.04
2022-12-08T12:28:57.883Z,35.34
2022-12-08T12:31:47.461Z,35.12
2022-12-08T12:34:30.051Z,35.19
2022-12-08T12:37:05.391Z,35.57
2022-12-08T12:39:45.762Z,35.00
2022-12-08T12:42:38.047Z,35.47
2022-12-08T12:45:27.134Z,35.28
2022-12-08T12:47:57.270Z,35.03
2022-12-08T12:50:33.233Z,35.61
2022-12-08T12:53:26.079Z,35.42
2022-12-08T12:55:59.858Z,34.96
2022-12-08T12:58:32.134Z,35.51
2022-12-08T13:01:13.801Z,35.60
2022-12-08T13:03:41.571Z,35.46
2022-12-08T13:06:14.557Z,35.55
2022-12-08T13:08:51.333Z,35.06
2022-12-08T13:11:18.199Z,35.41
2022-12-08T13:14:06.054Z,35.32
2022-12-08T13:16:37.542Z,35.30
2022-12-08T13:19:11.595Z,35.68
2022-12-08T13:21:39.833Z,35.73
2022-12-08T13:24:14.256Z,35.21
2022-12-08T13:26:48.908Z,35.43
2022-12-08T13:29:25.595Z,35.39
2022-12-08T13:32:03.382Z,35.51
2022-12-08T13:34:42.281Z,35.50
2022-12-08T13:37:11.594Z,35.40
2022-12-08T13:39:40.906Z,35.49
2022-12-08T13:42:33.605Z,35.64
2022-12-08T13:45:39.639Z,35.41
2022-12-08T13:49:03.386Z,35.85
2022-12-08T13:53:22.440Z,35.78
2022-12-08T13:57:08.509Z,35.38
2022-12-08T13:59:44.655Z,35.55
2022-12-08T14:02:47.039Z,35.30
2022-12-08T14:05:18.557Z,35.65
2022-12-08T14:07:48.352Z,35.79
2022-12-08T14:10:22.147Z,35.48
2022-12-08T14:12:55.461Z,35.61
2022-12-08T14:15:24.977Z,35.53
2022-12-08T14:17:53.511Z,35.61
2022-12-08T14:20:28.527Z,35.53
2022-12-08T14:22:55.397Z,35.81
2022-12-08T14:25:23.307Z,35.79
2022-12-08T14:27:56.371Z,35.88
2022-12-08T14:30:31.132Z,35.63
2022-12-08T14:32:59.425Z,35.63
2022-12-08T14:35:30.421Z,35.62
2022-12-08T14:38:12.964Z,35.68
2022-12-08T14:40:44.925Z,35.50
2022-12-08T14:43:16.492Z,35.71
2022-12-08T14:45:43.016Z,35.43
2022-12-08T14:48:27.761Z,35.65
2022-12-08T14:51:01.697Z,35.62
2022-12-08T14:53:39.886Z,35.78
2022-12-08T14:56:46.991Z,35.32
2022-12-08T14:59:13.544Z,35.76
2022-12-08T15:01:41.234Z,35.55
2022-12-08T15:04:14.842Z,35.39
2022-12-08T15:07:18.748Z,35.42
2022-12-08T15:09:49.955Z,35.81
2022-12-08T15:12:26.761Z,35.44
2022-12-08T15:15:14.378Z,35.47
2022-12-08T15:17:44.678Z,35.87
2022-12-08T15:20:35.937Z,35.50
2022-12-08T15:23:03.165Z,35.63
2022-12-08T15:25:30.054Z,35.76
2022-12-08T15:27:57.978Z,35.74
2022-12-08T15:30:28.655Z,36.02
2022-12-08T15:32:56.256Z,35.49
2022-12-08T15:35:23.969Z,35.38
2022-12-08T15:37:50.813Z,35.20
2022-12-08T15:40:20.235Z,35.44
2022-12-08T15:42:47.201Z,35.74
2022-12-08T15:45:14.998Z,35.57
2022-12-08T15:47:43.660Z,35.43
2022-12-08T15:50:18.355Z,35.21
2022-12-08T15:52:45.291Z,36.12
2022-12-08T15:55:13.857Z,35.61
2022-12-08T15:58:44.652Z,35.61
2022-12-08T16:00:53.014Z,35.72
2022-12-08T16:04:13.910Z,35.54
2022-12-08T16:09:42.085Z,35.43
2022-12-08T16:18:24.016Z,35.76
2022-12-08T16:21:13.294Z,35.91
2022-12-08T16:23:45.438Z,35.88
2022-12-08T16:29:17.598Z,36.21
2022-12-08T16:31:44.323Z,35.99
2022-12-08T16:34:10.903Z,35.97
2022-12-08T16:36:37.513Z,35.73
2022-12-08T16:39:04.109Z,36.04
2022-12-08T16:41:49.462Z,35.66
2022-12-08T16:44:16.047Z,35.92
2022-12-08T16:46:42.867Z,36.19
2022-12-08T16:49:09.893Z,35.87
2022-12-08T16:51:36.452Z,36.50
2022-12-08T16:54:03.197Z,36.17
2022-12-08T16:56:33.267Z,36.31
2022-12-08T16:59:01.820Z,36.18
2022-12-08T17:01:28.579Z,36.11
2022-12-08T17:04:29.346Z,36.13
2022-12-08T17:06:42.031Z,36.26
2022-12-08T17:09:08.635Z,36.16
2022-12-08T17:11:42.393Z,35.60
2022-12-08T17:14:10.745Z,36.05
2022-12-08T17:16:37.402Z,35.90
2022-12-08T17:19:04.256Z,35.87
2022-12-08T17:21:31.076Z,35.92
2022-12-08T17:23:57.693Z,35.99
2022-12-08T17:26:24.279Z,36.14
2022-12-08T17:29:06.301Z,35.77
2022-12-08T17:31:33.611Z,35.97
2022-12-08T17:34:01.744Z,35.71
2022-12-08T17:36:28.704Z,35.71
2022-12-08T17:38:56.459Z,35.81
2022-12-08T17:41:23.173Z,35.66
2022-12-08T17:43:49.953Z,36.21
2022-12-08T17:46:18.771Z,35.87
2022-12-08T17:48:45.573Z,35.47
2022-12-08T17:51:12.280Z,35.76
2022-12-08T17:53:40.713Z,36.01
2022-12-08T17:56:17.574Z,36.00
2022-12-08T17:58:45.643Z,35.88
2022-12-08T18:01:14.157Z,36.16
2022-12-08T18:03:40.782Z,36.09
2022-12-08T18:06:12.631Z,35.84
2022-12-08T18:08:40.194Z,35.75
2022-12-08T18:11:16.799Z,35.90
2022-12-08T18:13:43.707Z,35.95
2022-12-08T18:16:11.157Z,36.07
2022-12-08T18:18:37.788Z,35.38
2022-12-08T18:21:04.770Z,35.89
2022-12-08T18:23:31.381Z,35.81
2022-12-08T18:25:57.982Z,35.63
2022-12-08T18:28:24.615Z,36.03
2022-12-08T18:30:51.552Z,36.25
2022-12-08T18:33:18.179Z,35.79
2022-12-08T18:35:44.733Z,36.15
2022-12-08T18:38:11.303Z,35.89
2022-12-08T18:40:37.933Z,35.80
2022-12-08T18:43:04.546Z,36.09
2022-12-08T18:45:31.154Z,36.08
2022-12-08T18:47:57.729Z,35.74
2022-12-08T18:50:24.322Z,35.96
2022-12-08T18:52:51.545Z,36.06
2022-12-08T18:55:18.186Z,36.25
2022-12-08T18:57:44.829Z,35.91
2022-12-08T19:00:15.056Z,36.05
2022-12-08T19:02:41.800Z,35.91
2022-12-08T19:05:10.684Z,36.15
2022-12-08T19:07:37.679Z,35.79
2022-12-08T19:10:06.074Z,35.89
2022-12-08T19:12:32.986Z,35.64
2022-12-08T19:14:59.609Z,36.01
2022-12-08T19:17:26.208Z,36.00
2022-12-08T19:19:52.776Z,35.96
2022-12-08T19:22:19.354Z,35.98
2022-12-08T19:24:46.246Z,35.96
2022-12-08T19:27:12.836Z,35.89
2022-12-08T19:29:39.441Z,35.46
2022-12-08T19:32:06.152Z,36.15
2022-12-08T19:34:32.786Z,35.89
2022-12-08T19:36:59.359Z,35.79
2022-12-08T19:39:44.458Z,36.09
2022-12-08T19:42:38.535Z,35.84
2022-12-08T19:45:07.133Z,35.96
2022-12-08T19:47:34.042Z,35.74
2022-12-08T19:50:20.753Z,35.53
2022-12-08T19:52:47.385Z,36.10
2022-12-08T19:55:14.091Z,36.17
2022-12-08T19:57:40.702Z,36.06
2022-12-08T20:00:09.522Z,35.43
2022-12-08T20:02:37.095Z,36.11
2022-12-08T20:05:05.303Z,35.48
2022-12-08T20:07:31.910Z,35.69
2022-12-08T20:09:58.548Z,36.25
2022-12-08T20:12:25.143Z,35.95
2022-12-08T20:14:53.034Z,36.62
2022-12-08T20:17:19.608Z,36.26
2022-12-08T20:19:46.590Z,36.21
2022-12-08T20:22:13.667Z,36.09
2022-12-08T20:24:40.266Z,35.93
2022-12-08T20:27:06.922Z,35.71
2022-12-08T20:29:33.651Z,35.72
2022-12-08T20:32:00.345Z,35.84
2022-12-08T20:34:27.084Z,35.97
2022-12-08T20:36:53.710Z,36.07
2022-12-08T20:39:20.379Z,35.65
2022-12-08T20:41:47.029Z,36.17
2022-12-08T20:44:13.750Z,35.72
2022-12-08T20:46:43.771Z,36.21
2022-12-08T20:49:13.141Z,36.08
2022-12-08T20:51:39.794Z,35.96
2022-12-08T20:54:06.451Z,36.14
2022-12-08T20:56:33.160Z,36.12
2022-12-08T20:59:00.082Z,36.02
2022-12-08T21:01:26.860Z,35.77
2022-12-08T21:03:54.260Z,36.00
2022-12-08T21:06:24.530Z,35.98
2022-12-08T21:08:51.824Z,36.14
2022-12-08T21:11:18.987Z,36.13
2022-12-08T21:13:46.880Z,35.87
2022-12-08T21:16:15.147Z,36.37
2022-12-08T21:18:42.515Z,36.17
2022-12-08T21:21:12.275Z,35.95
2022-12-08T21:23:39.326Z,35.87
2022-12-08T21:26:14.978Z,35.85
2022-12-08T21:28:42.274Z,35.91
2022-12-08T21:31:10.370Z,35.99
2022-12-08T21:33:37.866Z,36.23
2022-12-08T21:36:09.384Z,36.13
2022-12-08T21:38:37.832Z,36.24
2022-12-08T21:41:10.398Z,36.40
2022-12-08T21:43:37.780Z,36.61
2022-12-08T21:46:05.284Z,36.37
2022-12-08T21:48:32.301Z,36.31
2022-12-08T21:51:05.024Z,36.29
2022-12-08T21:53:32.036Z,36.03
2022-12-08T21:55:58.824Z,36.07
2022-12-08T21:58:26.444Z,36.30
2022-12-08T22:00:53.350Z,36.31
2022-12-08T22:03:20.213Z,35.73
2022-12-08T22:05:47.032Z,36.57
2022-12-08T22:08:13.816Z,36.60
2022-12-08T22:10:40.663Z,36.35
2022-12-08T22:13:07.362Z,36.15
2022-12-08T22:15:34.221Z,35.96
2022-12-08T22:18:01.077Z,36.35
2022-12-08T22:20:27.818Z,36.12
2022-12-08T22:22:54.553Z,36.30
2022-12-08T22:25:21.195Z,36.04
2022-12-08T22:27:47.853Z,36.26
2022-12-08T22:30:14.593Z,36.17
2022-12-08T22:32:42.016Z,36.40
2022-12-08T22:35:09.654Z,36.54
2022-12-08T22:37:36.306Z,35.88
2022-12-08T22:40:03.173Z,36.21
2022-12-08T22:42:30.224Z,36.24
2022-12-08T22:44:56.779Z,36.12
2022-12-08T22:47:23.516Z,36.13
2022-12-08T22:49:50.079Z,36.25
2022-12-08T22:52:16.686Z,36.67
2022-12-08T22:54:43.366Z,36.17
2022-12-08T22:57:10.288Z,36.37
2022-12-08T22:59:37.574Z,35.83
2022-12-08T23:02:04.319Z,36.36
2022-12-08T23:04:31.160Z,36.14
2022-12-08T23:06:57.870Z,36.19
2022-12-08T23:09:24.467Z,35.93
2022-12-08T23:11:51.538Z,36.29
2022-12-08T23:14:18.082Z,36.09
2022-12-08T23:16:44.992Z,35.72
2022-12-08T23:19:11.888Z,36.41
2022-12-08T23:21:39.035Z,36.25
2022-12-08T23:24:05.854Z,35.86
2022-12-08T23:26:34.857Z,35.93
2022-12-08T23:29:01.712Z,35.91
2022-12-08T23:31:28.476Z,36.16
2022-12-08T23:33:55.159Z,36.04
2022-12-08T23:36:26.264Z,36.24
2022-12-08T23:38:54.453Z,36.03
2022-12-08T23:41:21.085Z,36.11
2022-12-08T23:43:51.381Z,36.34
2022-12-08T23:46:21.073Z,35.98
2022-12-08T23:48:48.045Z,35.86
2022-12-08T23:51:15.037Z,36.04
2022-12-08T23:53:42.205Z,36.21
2022-12-08T23:56:12.204Z,36.15
2022-12-08T23:58:40.168Z,36.46
